Genco Progress — VRYH6 — position and weather

sailwx.info

Track history (hours):
 
Tides and Currents Weather Stations Pressure Air Temp Water Temp Dewpoint Dewpoint Depression Visibility Wind Speed Wind Dir Waves Ship Positions

Genco Progress

Last reported at 2018-Sep-02 10:47 UTC. Time now 2019-Jun-16 05:17 UTC.
Position N 23°27' E 118°03'.
Warning: this ship's position is months out of date.

Length 170 m; draft 8 m.

Type: Cargo ship. MMSI: 477088000.

Date/timePositionNaut miles runAvg speedWind from/ knotsBaromVisibWave heightAir tempDewpointWater temp
2018-Sep-02 10:47N 23°27' E 118°03'712.1
2018-Sep-02 10:15N 23°31' E 118°08'212.1
2018-Sep-02 10:03N 23°33' E 118°10'112.3
2018-Sep-02 09:56N 23°34' E 118°11'612.7
2018-Sep-02 09:30N 23°38' E 118°16'612.7
2018-Sep-02 09:03N 23°42' E 118°20'112.8
2018-Sep-02 08:58N 23°43' E 118°20'712.5
2018-Sep-02 08:26N 23°47' E 118°26'512.5
2018-Sep-02 08:03N 23°51' E 118°29'111.9
2018-Sep-02 08:00N 23°51' E 118°30'1211.9
2018-Sep-02 06:57N 23°60' E 118°40'511.6
2018-Sep-02 06:30N 24°03' E 118°44'511.8
2018-Sep-02 06:03N 24°07' E 118°48'111.9
2018-Sep-02 05:58N 24°08' E 118°49'3211.3
2018-Sep-02 03:08N 24°30' E 119°14'111.3
2018-Sep-02 03:03N 24°31' E 119°15'110.8
2018-Sep-02 02:59N 24°31' E 119°15'4010.6
2018-Sep-01 23:13N 25°01' E 119°45'610.4
2018-Sep-01 22:36N 25°05' E 119°50'  
Track history (hours):
 
Tides and Currents Weather Stations Pressure Air Temp Water Temp Dewpoint Dewpoint Depression Visibility Wind Speed Wind Dir Waves Ship Positions

Genco Progress

Last reported at 2018-Sep-02 10:47 UTC. Time now 2019-Jun-16 05:17 UTC.
Position N 23°27' E 118°03'.
Warning: this ship's position is months out of date.

Length 170 m; draft 8 m.

Type: Cargo ship. MMSI: 477088000.

Date/timePositionNaut miles runAvg speedWind from/ knotsBaromVisibWave heightAir tempDewpointWater temp
2018-Sep-02 10:47N 23°27' E 118°03'712.1
2018-Sep-02 10:15N 23°31' E 118°08'212.1
2018-Sep-02 10:03N 23°33' E 118°10'112.3
2018-Sep-02 09:56N 23°34' E 118°11'612.7
2018-Sep-02 09:30N 23°38' E 118°16'612.7
2018-Sep-02 09:03N 23°42' E 118°20'112.8
2018-Sep-02 08:58N 23°43' E 118°20'712.5
2018-Sep-02 08:26N 23°47' E 118°26'512.5
2018-Sep-02 08:03N 23°51' E 118°29'111.9
2018-Sep-02 08:00N 23°51' E 118°30'1211.9
2018-Sep-02 06:57N 23°60' E 118°40'511.6
2018-Sep-02 06:30N 24°03' E 118°44'511.8
2018-Sep-02 06:03N 24°07' E 118°48'111.9
2018-Sep-02 05:58N 24°08' E 118°49'3211.3
2018-Sep-02 03:08N 24°30' E 119°14'111.3
2018-Sep-02 03:03N 24°31' E 119°15'110.8
2018-Sep-02 02:59N 24°31' E 119°15'4010.6
2018-Sep-01 23:13N 25°01' E 119°45'610.4
2018-Sep-01 22:36N 25°05' E 119°50'  

Dump ship's entire track history